CheckWX is a tool to help pilots better visualize weather data.  It is not intended as a substitute for an official pre-flight weather briefing.

20:35:11 UTC

KRAL METAR
Riverside Municipal Airport
Riverside, California, USA
Current

42 mins ago

KRAL 181953Z 03009G15KT 360V060 10SM FEW080 13/M06 A3002 RMK AO2 SLP159 T01281061
Observed
Feb-18 @ 19:53 UTC
Wind
  • 030° at 9 KTS
  • Gusting to 15 KTS
Visibility
10 SM
Flight Rules
VFR
Cloud Levels
  • Few at 8,000' AGL
Temperature
13°C / 55°F
Dewpoint
-6°C / 21°F
Humidity
26%
Altimeter
30.02" Hg
Pressure
1015.9 hPa
Previous

2 hours ago

KRAL 181853Z 00000KT 10SM FEW080 11/M02 A3004 RMK AO2 SLP165 T01111022
Observed
Feb-18 @ 18:53 UTC
Visibility
10 SM
Flight Rules
VFR
Cloud Levels
  • Few at 8,000' AGL
Temperature
11°C / 52°F
Dewpoint
-2°C / 28°F
Humidity
41%
Altimeter
30.04" Hg
Pressure
1016.5 hPa
Previous

3 hours ago

KRAL 181753Z 00000KT 10SM FEW080 09/M02 A3005 RMK AO2 SLP170 T00941022 10094 20011 50008
Observed
Feb-18 @ 17:53 UTC
Visibility
10 SM
Flight Rules
VFR
Cloud Levels
  • Few at 8,000' AGL
Temperature
C / 48°F
Dewpoint
-2°C / 28°F
Humidity
46%
Altimeter
30.05" Hg
Pressure
1017 hPa